Leesburg, Florida
Current Conditions -  °F | °C
As of 5:53 PM on Friday 28 Nov 2014 (Local Time) from KLEE Reporting Station
Clear Clear  
Wind Chill: 11°   Ceiling: Unl
Heat Index: 11°   Visibility: 10mi
Dew Point:   Wind: 5mph
Humidity: 66%   Direction: 40°NE
Pressure: 30.28"   Gusts: NA
Location:  28.81°N, 81.88°W
Report Text: KLEE 282253Z AUTO 04004KT 10SM CLR 11/05 A3028 RMK AO2 SLP254 T01110050
Loading
Personal Weather Stations






























Interactive Weather Map New forecast layout! Learn more

10-Day Weather Forecast

Advertisements
Track Severe Weather on mobile